sensor_id;sensor_type;location;lat;lon;timestamp;temperature;humidity
15274;DHT22;7738;49.532;11.156;2023-08-24T00:01:47;16.80;99.90
15274;DHT22;7738;49.532;11.156;2023-08-24T00:04:17;17.90;99.90
15274;DHT22;7738;49.532;11.156;2023-08-24T00:06:49;16.80;99.90
15274;DHT22;7738;49.532;11.156;2023-08-24T00:09:20;16.90;99.90
15274;DHT22;7738;49.532;11.156;2023-08-24T00:11:51;16.90;99.90
15274;DHT22;7738;49.532;11.156;2023-08-24T00:14:22;16.80;99.90
15274;DHT22;7738;49.532;11.156;2023-08-24T00:16:52;16.80;99.90
15274;DHT22;7738;49.532;11.156;2023-08-24T00:19:22;16.80;99.90
15274;DHT22;7738;49.532;11.156;2023-08-24T00:21:56;18.10;99.90
15274;DHT22;7738;49.532;11.156;2023-08-24T00:24:26;16.70;99.90
15274;DHT22;7738;49.532;11.156;2023-08-24T00:26:56;16.70;99.90
15274;DHT22;7738;49.532;11.156;2023-08-24T00:29:26;17.80;99.90
15274;DHT22;7738;49.532;11.156;2023-08-24T00:31:56;16.80;99.90
15274;DHT22;7738;49.532;11.156;2023-08-24T00:34:26;19.30;99.90
15274;DHT22;7738;49.532;11.156;2023-08-24T00:36:59;16.80;99.90
15274;DHT22;7738;49.532;11.156;2023-08-24T00:39:29;16.70;99.90
15274;DHT22;7738;49.532;11.156;2023-08-24T00:42:00;16.60;99.90
15274;DHT22;7738;49.532;11.156;2023-08-24T00:44:30;16.60;99.90
15274;DHT22;7738;49.532;11.156;2023-08-24T00:47:01;16.60;99.90
15274;DHT22;7738;49.532;11.156;2023-08-24T00:49:31;16.70;99.90
15274;DHT22;7738;49.532;11.156;2023-08-24T00:52:04;16.50;99.90
15274;DHT22;7738;49.532;11.156;2023-08-24T00:54:36;18.30;99.90
15274;DHT22;7738;49.532;11.156;2023-08-24T00:57:07;16.50;99.90
15274;DHT22;7738;49.532;11.156;2023-08-24T00:59:37;16.70;99.90
15274;DHT22;7738;49.532;11.156;2023-08-24T01:02:07;16.90;99.90
15274;DHT22;7738;49.532;11.156;2023-08-24T01:04:41;17.50;99.90
15274;DHT22;7738;49.532;11.156;2023-08-24T01:07:14;16.40;99.90
15274;DHT22;7738;49.532;11.156;2023-08-24T01:09:45;16.40;99.90
15274;DHT22;7738;49.532;11.156;2023-08-24T01:12:22;16.40;99.90
15274;DHT22;7738;49.532;11.156;2023-08-24T01:15:00;16.50;99.90
15274;DHT22;7738;49.532;11.156;2023-08-24T01:17:33;16.40;99.90
15274;DHT22;7738;49.532;11.156;2023-08-24T01:20:06;16.40;99.90
15274;DHT22;7738;49.532;11.156;2023-08-24T01:22:46;16.30;99.90
15274;DHT22;7738;49.532;11.156;2023-08-24T01:25:26;16.40;99.90
15274;DHT22;7738;49.532;11.156;2023-08-24T01:28:03;16.30;99.90
15274;DHT22;7738;49.532;11.156;2023-08-24T01:30:35;16.20;99.90
15274;DHT22;7738;49.532;11.156;2023-08-24T01:33:05;16.20;99.90
15274;DHT22;7738;49.532;11.156;2023-08-24T01:35:39;16.10;99.90
15274;DHT22;7738;49.532;11.156;2023-08-24T01:38:10;16.10;99.90
15274;DHT22;7738;49.532;11.156;2023-08-24T01:40:48;16.10;99.90
15274;DHT22;7738;49.532;11.156;2023-08-24T01:43:29;16.10;99.90
15274;DHT22;7738;49.532;11.156;2023-08-24T01:46:12;16.10;99.90
15274;DHT22;7738;49.532;11.156;2023-08-24T01:48:44;16.10;99.90
15274;DHT22;7738;49.532;11.156;2023-08-24T01:51:15;16.10;99.90
15274;DHT22;7738;49.532;11.156;2023-08-24T01:53:45;16.00;99.90
15274;DHT22;7738;49.532;11.156;2023-08-24T01:56:16;16.10;99.90
15274;DHT22;7738;49.532;11.156;2023-08-24T01:58:49;15.80;99.90
15274;DHT22;7738;49.532;11.156;2023-08-24T02:01:19;15.80;99.90
15274;DHT22;7738;49.532;11.156;2023-08-24T02:03:49;15.80;99.90
15274;DHT22;7738;49.532;11.156;2023-08-24T02:06:20;15.80;99.90
15274;DHT22;7738;49.532;11.156;2023-08-24T02:08:50;16.60;99.90
15274;DHT22;7738;49.532;11.156;2023-08-24T02:11:20;15.70;99.90
15274;DHT22;7738;49.532;11.156;2023-08-24T02:13:54;17.00;99.90
15274;DHT22;7738;49.532;11.156;2023-08-24T02:16:24;15.60;99.90
15274;DHT22;7738;49.532;11.156;2023-08-24T02:18:54;18.00;99.90
15274;DHT22;7738;49.532;11.156;2023-08-24T02:21:24;15.60;99.90
15274;DHT22;7738;49.532;11.156;2023-08-24T02:23:54;16.20;99.90
15274;DHT22;7738;49.532;11.156;2023-08-24T02:26:24;15.90;99.90
15274;DHT22;7738;49.532;11.156;2023-08-24T02:28:57;16.80;99.90
15274;DHT22;7738;49.532;11.156;2023-08-24T02:31:28;17.80;99.90
15274;DHT22;7738;49.532;11.156;2023-08-24T02:33:58;18.10;99.90
15274;DHT22;7738;49.532;11.156;2023-08-24T02:36:29;15.50;99.90
15274;DHT22;7738;49.532;11.156;2023-08-24T02:39:00;15.50;99.90
15274;DHT22;7738;49.532;11.156;2023-08-24T02:41:32;15.40;99.90
15274;DHT22;7738;49.532;11.156;2023-08-24T02:44:05;15.30;99.90
15274;DHT22;7738;49.532;11.156;2023-08-24T02:46:37;15.50;99.90
15274;DHT22;7738;49.532;11.156;2023-08-24T02:49:07;15.30;99.90
15274;DHT22;7738;49.532;11.156;2023-08-24T02:51:37;15.30;99.90
15274;DHT22;7738;49.532;11.156;2023-08-24T02:54:08;15.30;99.90
15274;DHT22;7738;49.532;11.156;2023-08-24T02:56:38;15.30;99.90
15274;DHT22;7738;49.532;11.156;2023-08-24T02:59:10;15.30;99.90
15274;DHT22;7738;49.532;11.156;2023-08-24T03:01:41;16.70;99.90
15274;DHT22;7738;49.532;11.156;2023-08-24T03:04:11;15.30;99.90
15274;DHT22;7738;49.532;11.156;2023-08-24T03:06:43;16.20;99.90
15274;DHT22;7738;49.532;11.156;2023-08-24T03:09:13;15.30;99.90
15274;DHT22;7738;49.532;11.156;2023-08-24T03:11:44;15.30;99.90
15274;DHT22;7738;49.532;11.156;2023-08-24T03:14:16;17.90;99.90
15274;DHT22;7738;49.532;11.156;2023-08-24T03:16:47;14.30;99.90
15274;DHT22;7738;49.532;11.156;2023-08-24T03:19:17;16.50;99.90
15274;DHT22;7738;49.532;11.156;2023-08-24T03:21:47;15.40;99.90
15274;DHT22;7738;49.532;11.156;2023-08-24T03:24:18;15.10;99.90
15274;DHT22;7738;49.532;11.156;2023-08-24T03:26:48;15.10;99.90
15274;DHT22;7738;49.532;11.156;2023-08-24T03:29:22;15.10;99.90
15274;DHT22;7738;49.532;11.156;2023-08-24T03:31:52;17.50;99.90
15274;DHT22;7738;49.532;11.156;2023-08-24T03:34:23;16.30;99.90
15274;DHT22;7738;49.532;11.156;2023-08-24T03:36:54;15.10;99.90
15274;DHT22;7738;49.532;11.156;2023-08-24T03:39:24;17.60;99.90
15274;DHT22;7738;49.532;11.156;2023-08-24T03:41:54;15.00;99.90
15274;DHT22;7738;49.532;11.156;2023-08-24T03:44:27;15.00;99.90
15274;DHT22;7738;49.532;11.156;2023-08-24T03:46:57;15.70;99.90
15274;DHT22;7738;49.532;11.156;2023-08-24T03:49:28;16.80;99.90
15274;DHT22;7738;49.532;11.156;2023-08-24T03:51:58;16.10;99.90
15274;DHT22;7738;49.532;11.156;2023-08-24T03:54:30;14.90;99.90
15274;DHT22;7738;49.532;11.156;2023-08-24T03:57:00;16.90;99.90
15274;DHT22;7738;49.532;11.156;2023-08-24T03:59:33;15.00;99.90
15274;DHT22;7738;49.532;11.156;2023-08-24T04:02:03;14.90;99.90
15274;DHT22;7738;49.532;11.156;2023-08-24T04:04:34;14.90;99.90
15274;DHT22;7738;49.532;11.156;2023-08-24T04:07:04;15.00;99.90
15274;DHT22;7738;49.532;11.156;2023-08-24T04:09:34;15.00;99.90
15274;DHT22;7738;49.532;11.156;2023-08-24T04:12:05;15.00;99.90
15274;DHT22;7738;49.532;11.156;2023-08-24T04:14:38;15.00;99.90
15274;DHT22;7738;49.532;11.156;2023-08-24T04:17:08;15.00;99.90
15274;DHT22;7738;49.532;11.156;2023-08-24T04:19:38;16.20;99.90
15274;DHT22;7738;49.532;11.156;2023-08-24T04:22:08;15.40;99.90
15274;DHT22;7738;49.532;11.156;2023-08-24T04:24:38;14.80;99.90
15274;DHT22;7738;49.532;11.156;2023-08-24T04:27:08;14.50;99.90
15274;DHT22;7738;49.532;11.156;2023-08-24T04:29:41;14.70;99.90
15274;DHT22;7738;49.532;11.156;2023-08-24T04:32:11;17.20;99.90
15274;DHT22;7738;49.532;11.156;2023-08-24T04:34:41;16.70;99.90
15274;DHT22;7738;49.532;11.156;2023-08-24T04:37:12;14.60;99.90
15274;DHT22;7738;49.532;11.156;2023-08-24T04:39:42;14.60;99.90
15274;DHT22;7738;49.532;11.156;2023-08-24T04:42:12;16.80;99.90
15274;DHT22;7738;49.532;11.156;2023-08-24T04:44:45;15.90;99.90
15274;DHT22;7738;49.532;11.156;2023-08-24T04:47:15;16.00;99.90
15274;DHT22;7738;49.532;11.156;2023-08-24T04:49:45;16.60;99.90
15274;DHT22;7738;49.532;11.156;2023-08-24T04:52:15;15.00;99.90
15274;DHT22;7738;49.532;11.156;2023-08-24T04:54:46;14.80;99.90
15274;DHT22;7738;49.532;11.156;2023-08-24T04:57:17;15.60;99.90
15274;DHT22;7738;49.532;11.156;2023-08-24T04:59:53;17.10;99.90
15274;DHT22;7738;49.532;11.156;2023-08-24T05:02:23;14.80;99.90
15274;DHT22;7738;49.532;11.156;2023-08-24T05:04:53;14.80;99.90
15274;DHT22;7738;49.532;11.156;2023-08-24T05:07:23;14.80;99.90
15274;DHT22;7738;49.532;11.156;2023-08-24T05:09:54;14.80;99.90
15274;DHT22;7738;49.532;11.156;2023-08-24T05:12:24;14.80;99.90
15274;DHT22;7738;49.532;11.156;2023-08-24T05:14:57;14.70;99.90
15274;DHT22;7738;49.532;11.156;2023-08-24T05:17:27;16.10;99.90
15274;DHT22;7738;49.532;11.156;2023-08-24T05:19:59;15.50;99.90
15274;DHT22;7738;49.532;11.156;2023-08-24T05:22:29;16.60;99.90
15274;DHT22;7738;49.532;11.156;2023-08-24T05:24:59;15.00;99.90
15274;DHT22;7738;49.532;11.156;2023-08-24T05:27:30;15.00;99.90
15274;DHT22;7738;49.532;11.156;2023-08-24T05:30:03;15.10;99.90
15274;DHT22;7738;49.532;11.156;2023-08-24T05:32:34;15.20;99.90
15274;DHT22;7738;49.532;11.156;2023-08-24T05:35:07;17.00;99.90
15274;DHT22;7738;49.532;11.156;2023-08-24T05:37:38;15.40;99.90
15274;DHT22;7738;49.532;11.156;2023-08-24T05:40:09;15.50;99.90
15274;DHT22;7738;49.532;11.156;2023-08-24T05:42:39;15.60;99.90
15274;DHT22;7738;49.532;11.156;2023-08-24T05:45:12;15.70;99.90
15274;DHT22;7738;49.532;11.156;2023-08-24T05:47:42;15.90;99.90
15274;DHT22;7738;49.532;11.156;2023-08-24T05:50:12;16.00;99.90
15274;DHT22;7738;49.532;11.156;2023-08-24T05:52:42;16.20;99.90
15274;DHT22;7738;49.532;11.156;2023-08-24T05:55:12;16.40;99.90
15274;DHT22;7738;49.532;11.156;2023-08-24T05:57:43;16.60;99.90
15274;DHT22;7738;49.532;11.156;2023-08-24T06:00:16;18.30;99.90
15274;DHT22;7738;49.532;11.156;2023-08-24T06:02:49;16.90;99.90
15274;DHT22;7738;49.532;11.156;2023-08-24T06:05:19;17.10;99.90
15274;DHT22;7738;49.532;11.156;2023-08-24T06:07:50;17.30;99.90
15274;DHT22;7738;49.532;11.156;2023-08-24T06:10:20;17.40;99.90
15274;DHT22;7738;49.532;11.156;2023-08-24T06:12:51;17.50;99.90
15274;DHT22;7738;49.532;11.156;2023-08-24T06:15:24;17.60;99.90
15274;DHT22;7738;49.532;11.156;2023-08-24T06:17:55;17.70;99.90
15274;DHT22;7738;49.532;11.156;2023-08-24T06:20:26;17.80;99.90
15274;DHT22;7738;49.532;11.156;2023-08-24T06:22:56;17.80;99.90
15274;DHT22;7738;49.532;11.156;2023-08-24T06:25:27;17.90;99.90
15274;DHT22;7738;49.532;11.156;2023-08-24T06:27:57;17.90;99.90
15274;DHT22;7738;49.532;11.156;2023-08-24T06:30:37;17.90;99.90
15274;DHT22;7738;49.532;11.156;2023-08-24T06:33:07;19.30;99.90
15274;DHT22;7738;49.532;11.156;2023-08-24T06:35:38;17.90;99.90
15274;DHT22;7738;49.532;11.156;2023-08-24T06:38:08;17.90;99.90
15274;DHT22;7738;49.532;11.156;2023-08-24T06:40:39;17.80;99.90
15274;DHT22;7738;49.532;11.156;2023-08-24T06:43:09;17.80;99.90
15274;DHT22;7738;49.532;11.156;2023-08-24T06:45:44;17.70;99.90
15274;DHT22;7738;49.532;11.156;2023-08-24T06:48:14;19.70;99.90
15274;DHT22;7738;49.532;11.156;2023-08-24T06:50:45;17.70;99.90
15274;DHT22;7738;49.532;11.156;2023-08-24T06:53:15;17.70;99.90
15274;DHT22;7738;49.532;11.156;2023-08-24T06:55:45;17.80;99.90
15274;DHT22;7738;49.532;11.156;2023-08-24T06:58:15;19.50;99.90
15274;DHT22;7738;49.532;11.156;2023-08-24T07:00:48;19.20;99.90
15274;DHT22;7738;49.532;11.156;2023-08-24T07:03:18;18.30;99.90
15274;DHT22;7738;49.532;11.156;2023-08-24T07:05:48;19.20;99.90
15274;DHT22;7738;49.532;11.156;2023-08-24T07:08:18;18.70;99.90
15274;DHT22;7738;49.532;11.156;2023-08-24T07:10:48;18.90;99.90
15274;DHT22;7738;49.532;11.156;2023-08-24T07:13:19;19.10;99.90
15274;DHT22;7738;49.532;11.156;2023-08-24T07:15:51;19.30;99.90
15274;DHT22;7738;49.532;11.156;2023-08-24T07:18:22;19.40;99.90
15274;DHT22;7738;49.532;11.156;2023-08-24T07:20:54;19.50;99.90
15274;DHT22;7738;49.532;11.156;2023-08-24T07:23:24;19.80;99.90
15274;DHT22;7738;49.532;11.156;2023-08-24T07:25:54;19.50;99.90
15274;DHT22;7738;49.532;11.156;2023-08-24T07:28:24;21.20;99.90
15274;DHT22;7738;49.532;11.156;2023-08-24T07:30:57;20.20;99.90
15274;DHT22;7738;49.532;11.156;2023-08-24T07:33:28;19.80;99.90
15274;DHT22;7738;49.532;11.156;2023-08-24T07:35:58;19.90;99.90
15274;DHT22;7738;49.532;11.156;2023-08-24T07:38:31;19.90;99.90
15274;DHT22;7738;49.532;11.156;2023-08-24T07:41:01;20.00;99.90
15274;DHT22;7738;49.532;11.156;2023-08-24T07:43:33;20.30;99.90
15274;DHT22;7738;49.532;11.156;2023-08-24T07:46:06;20.30;99.90
15274;DHT22;7738;49.532;11.156;2023-08-24T07:48:36;20.30;99.90
15274;DHT22;7738;49.532;11.156;2023-08-24T07:51:07;20.40;99.90
15274;DHT22;7738;49.532;11.156;2023-08-24T07:53:37;20.50;99.90
15274;DHT22;7738;49.532;11.156;2023-08-24T07:56:07;21.70;99.90
15274;DHT22;7738;49.532;11.156;2023-08-24T07:58:37;22.50;99.90
15274;DHT22;7738;49.532;11.156;2023-08-24T08:01:11;22.00;99.90
15274;DHT22;7738;49.532;11.156;2023-08-24T08:03:41;21.00;99.90
15274;DHT22;7738;49.532;11.156;2023-08-24T08:06:11;23.00;99.90
15274;DHT22;7738;49.532;11.156;2023-08-24T08:08:42;22.30;99.90
15274;DHT22;7738;49.532;11.156;2023-08-24T08:11:13;23.10;99.90
15274;DHT22;7738;49.532;11.156;2023-08-24T08:13:44;21.70;99.90
15274;DHT22;7738;49.532;11.156;2023-08-24T08:16:16;21.70;99.90
15274;DHT22;7738;49.532;11.156;2023-08-24T08:18:47;21.70;99.90
15274;DHT22;7738;49.532;11.156;2023-08-24T08:21:17;21.80;99.90
15274;DHT22;7738;49.532;11.156;2023-08-24T08:23:50;22.30;99.90
15274;DHT22;7738;49.532;11.156;2023-08-24T08:26:20;22.20;99.90
15274;DHT22;7738;49.532;11.156;2023-08-24T08:28:50;22.30;99.90
15274;DHT22;7738;49.532;11.156;2023-08-24T08:31:23;22.50;99.90
15274;DHT22;7738;49.532;11.156;2023-08-24T08:33:53;22.70;99.90
15274;DHT22;7738;49.532;11.156;2023-08-24T08:36:23;22.90;99.90
15274;DHT22;7738;49.532;11.156;2023-08-24T08:38:53;23.00;99.90
15274;DHT22;7738;49.532;11.156;2023-08-24T08:41:27;25.20;99.90
15274;DHT22;7738;49.532;11.156;2023-08-24T08:44:05;23.60;99.90
15274;DHT22;7738;49.532;11.156;2023-08-24T08:46:38;23.80;99.90
15274;DHT22;7738;49.532;11.156;2023-08-24T08:49:09;24.50;99.90
15274;DHT22;7738;49.532;11.156;2023-08-24T08:51:39;24.30;99.90
15274;DHT22;7738;49.532;11.156;2023-08-24T08:54:09;24.50;99.90
15274;DHT22;7738;49.532;11.156;2023-08-24T08:56:40;25.00;99.90
15274;DHT22;7738;49.532;11.156;2023-08-24T08:59:11;25.60;99.90
15274;DHT22;7738;49.532;11.156;2023-08-24T09:01:47;24.90;99.90
15274;DHT22;7738;49.532;11.156;2023-08-24T09:04:18;26.10;99.90
15274;DHT22;7738;49.532;11.156;2023-08-24T09:06:48;25.30;99.90
15274;DHT22;7738;49.532;11.156;2023-08-24T09:09:18;25.90;99.90
15274;DHT22;7738;49.532;11.156;2023-08-24T09:11:50;25.90;99.10
15274;DHT22;7738;49.532;11.156;2023-08-24T09:14:21;26.10;97.30
15274;DHT22;7738;49.532;11.156;2023-08-24T09:16:54;26.20;97.40
15274;DHT22;7738;49.532;11.156;2023-08-24T09:19:28;26.60;97.30
15274;DHT22;7738;49.532;11.156;2023-08-24T09:22:01;27.20;96.70
15274;DHT22;7738;49.532;11.156;2023-08-24T09:24:35;27.20;94.30
15274;DHT22;7738;49.532;11.156;2023-08-24T09:27:15;27.30;94.10
15274;DHT22;7738;49.532;11.156;2023-08-24T09:29:48;26.70;94.50
15274;DHT22;7738;49.532;11.156;2023-08-24T09:32:27;26.70;95.10
15274;DHT22;7738;49.532;11.156;2023-08-24T09:35:02;26.00;95.00
15274;DHT22;7738;49.532;11.156;2023-08-24T09:37:34;25.80;95.40
15274;DHT22;7738;49.532;11.156;2023-08-24T09:40:07;25.60;96.60
15274;DHT22;7738;49.532;11.156;2023-08-24T09:42:40;25.60;96.70
15274;DHT22;7738;49.532;11.156;2023-08-24T09:45:12;25.50;96.10
15274;DHT22;7738;49.532;11.156;2023-08-24T09:47:49;26.30;96.40
15274;DHT22;7738;49.532;11.156;2023-08-24T09:50:21;26.20;96.60
15274;DHT22;7738;49.532;11.156;2023-08-24T09:52:54;26.60;96.40
15274;DHT22;7738;49.532;11.156;2023-08-24T09:55:29;26.60;95.00
15274;DHT22;7738;49.532;11.156;2023-08-24T09:58:03;27.50;94.60
15274;DHT22;7738;49.532;11.156;2023-08-24T10:00:35;27.50;92.90
15274;DHT22;7738;49.532;11.156;2023-08-24T10:03:08;28.00;92.80
15274;DHT22;7738;49.532;11.156;2023-08-24T10:05:41;28.10;89.10
15274;DHT22;7738;49.532;11.156;2023-08-24T10:08:27;28.20;89.60
15274;DHT22;7738;49.532;11.156;2023-08-24T10:10:58;28.30;83.30
15274;DHT22;7738;49.532;11.156;2023-08-24T10:13:41;28.50;81.30
15274;DHT22;7738;49.532;11.156;2023-08-24T10:16:14;28.80;80.50
15274;DHT22;7738;49.532;11.156;2023-08-24T10:18:49;28.90;81.30
15274;DHT22;7738;49.532;11.156;2023-08-24T10:21:20;29.30;79.20
15274;DHT22;7738;49.532;11.156;2023-08-24T10:23:53;29.30;77.10
15274;DHT22;7738;49.532;11.156;2023-08-24T10:26:25;29.50;76.80
15274;DHT22;7738;49.532;11.156;2023-08-24T10:28:57;29.70;75.90
15274;DHT22;7738;49.532;11.156;2023-08-24T10:31:28;30.00;74.90
15274;DHT22;7738;49.532;11.156;2023-08-24T10:34:03;30.90;70.30
15274;DHT22;7738;49.532;11.156;2023-08-24T10:36:34;30.10;71.40
15274;DHT22;7738;49.532;11.156;2023-08-24T10:39:05;30.20;72.30
15274;DHT22;7738;49.532;11.156;2023-08-24T10:41:57;30.40;71.90
15274;DHT22;7738;49.532;11.156;2023-08-24T10:44:35;30.70;71.00
15274;DHT22;7738;49.532;11.156;2023-08-24T10:47:12;30.90;70.20
15274;DHT22;7738;49.532;11.156;2023-08-24T10:49:58;31.10;68.50
15274;DHT22;7738;49.532;11.156;2023-08-24T10:52:32;31.10;68.90
15274;DHT22;7738;49.532;11.156;2023-08-24T10:55:05;31.30;66.70
15274;DHT22;7738;49.532;11.156;2023-08-24T10:57:36;31.30;65.90
15274;DHT22;7738;49.532;11.156;2023-08-24T11:00:12;31.40;66.80
15274;DHT22;7738;49.532;11.156;2023-08-24T11:02:43;31.50;64.40
15274;DHT22;7738;49.532;11.156;2023-08-24T11:05:21;31.60;66.60
15274;DHT22;7738;49.532;11.156;2023-08-24T11:07:54;31.70;64.70
15274;DHT22;7738;49.532;11.156;2023-08-24T11:10:25;31.70;64.00
15274;DHT22;7738;49.532;11.156;2023-08-24T11:13:10;31.80;63.10
15274;DHT22;7738;49.532;11.156;2023-08-24T11:15:41;31.80;63.50
15274;DHT22;7738;49.532;11.156;2023-08-24T11:18:20;31.70;64.00
15274;DHT22;7738;49.532;11.156;2023-08-24T11:20:55;32.00;64.40
15274;DHT22;7738;49.532;11.156;2023-08-24T11:23:26;32.00;64.30
15274;DHT22;7738;49.532;11.156;2023-08-24T11:25:58;32.10;64.40
15274;DHT22;7738;49.532;11.156;2023-08-24T11:28:30;32.40;64.60
15274;DHT22;7738;49.532;11.156;2023-08-24T11:31:01;32.40;61.00
15274;DHT22;7738;49.532;11.156;2023-08-24T11:33:33;32.20;61.10
15274;DHT22;7738;49.532;11.156;2023-08-24T11:36:08;31.90;63.10
15274;DHT22;7738;49.532;11.156;2023-08-24T11:38:41;31.70;62.40
15274;DHT22;7738;49.532;11.156;2023-08-24T11:41:12;31.70;62.70
15274;DHT22;7738;49.532;11.156;2023-08-24T11:43:43;31.90;62.00
15274;DHT22;7738;49.532;11.156;2023-08-24T11:46:15;31.90;63.80
15274;DHT22;7738;49.532;11.156;2023-08-24T11:48:46;32.10;63.00
15274;DHT22;7738;49.532;11.156;2023-08-24T11:51:19;32.40;62.40
15274;DHT22;7738;49.532;11.156;2023-08-24T11:54:09;32.50;60.20
15274;DHT22;7738;49.532;11.156;2023-08-24T11:56:43;32.40;61.10
15274;DHT22;7738;49.532;11.156;2023-08-24T11:59:14;32.30;60.90
15274;DHT22;7738;49.532;11.156;2023-08-24T12:01:45;32.50;62.00
15274;DHT22;7738;49.532;11.156;2023-08-24T12:04:17;32.60;62.00
15274;DHT22;7738;49.532;11.156;2023-08-24T12:06:49;33.10;62.90
15274;DHT22;7738;49.532;11.156;2023-08-24T12:09:20;33.20;59.80
15274;DHT22;7738;49.532;11.156;2023-08-24T12:11:55;33.00;62.20
15274;DHT22;7738;49.532;11.156;2023-08-24T12:14:25;33.10;59.70
15274;DHT22;7738;49.532;11.156;2023-08-24T12:16:55;33.10;59.00
15274;DHT22;7738;49.532;11.156;2023-08-24T12:19:26;32.30;59.70
15274;DHT22;7738;49.532;11.156;2023-08-24T12:21:59;32.70;61.00
15274;DHT22;7738;49.532;11.156;2023-08-24T12:24:29;32.60;60.20
15274;DHT22;7738;49.532;11.156;2023-08-24T12:26:59;32.60;60.20
15274;DHT22;7738;49.532;11.156;2023-08-24T12:29:30;32.60;59.70
15274;DHT22;7738;49.532;11.156;2023-08-24T12:32:00;32.30;60.40
15274;DHT22;7738;49.532;11.156;2023-08-24T12:34:31;32.00;60.80
15274;DHT22;7738;49.532;11.156;2023-08-24T12:37:04;32.00;62.70
15274;DHT22;7738;49.532;11.156;2023-08-24T12:39:35;32.00;62.00
15274;DHT22;7738;49.532;11.156;2023-08-24T12:42:06;32.10;63.10
15274;DHT22;7738;49.532;11.156;2023-08-24T12:44:37;32.10;61.00
15274;DHT22;7738;49.532;11.156;2023-08-24T12:47:07;32.20;60.50
15274;DHT22;7738;49.532;11.156;2023-08-24T12:49:37;32.20;62.40
15274;DHT22;7738;49.532;11.156;2023-08-24T12:52:10;32.20;62.80
15274;DHT22;7738;49.532;11.156;2023-08-24T12:54:40;32.40;63.40
15274;DHT22;7738;49.532;11.156;2023-08-24T12:57:10;32.50;62.20
15274;DHT22;7738;49.532;11.156;2023-08-24T12:59:40;32.70;61.10
15274;DHT22;7738;49.532;11.156;2023-08-24T13:02:10;32.50;61.30
15274;DHT22;7738;49.532;11.156;2023-08-24T13:04:55;32.40;61.90
15274;DHT22;7738;49.532;11.156;2023-08-24T13:07:32;32.30;63.40
15274;DHT22;7738;49.532;11.156;2023-08-24T13:10:02;32.40;63.60
15274;DHT22;7738;49.532;11.156;2023-08-24T13:12:34;32.40;62.50
15274;DHT22;7738;49.532;11.156;2023-08-24T13:15:06;32.60;63.50
15274;DHT22;7738;49.532;11.156;2023-08-24T13:17:36;33.00;61.30
15274;DHT22;7738;49.532;11.156;2023-08-24T13:20:07;33.20;61.70
15274;DHT22;7738;49.532;11.156;2023-08-24T13:22:40;33.60;59.90
15274;DHT22;7738;49.532;11.156;2023-08-24T13:25:10;33.80;58.60
15274;DHT22;7738;49.532;11.156;2023-08-24T13:27:41;33.90;58.20
15274;DHT22;7738;49.532;11.156;2023-08-24T13:30:11;34.10;58.10
15274;DHT22;7738;49.532;11.156;2023-08-24T13:32:41;34.20;56.90
15274;DHT22;7738;49.532;11.156;2023-08-24T13:35:12;34.00;53.80
15274;DHT22;7738;49.532;11.156;2023-08-24T13:37:44;33.80;54.00
15274;DHT22;7738;49.532;11.156;2023-08-24T13:40:14;33.80;55.50
15274;DHT22;7738;49.532;11.156;2023-08-24T13:42:45;34.00;55.80
15274;DHT22;7738;49.532;11.156;2023-08-24T13:45:16;34.10;56.40
15274;DHT22;7738;49.532;11.156;2023-08-24T13:47:46;34.40;55.10
15274;DHT22;7738;49.532;11.156;2023-08-24T13:50:17;34.40;55.80
15274;DHT22;7738;49.532;11.156;2023-08-24T13:52:49;34.30;54.70
15274;DHT22;7738;49.532;11.156;2023-08-24T13:55:20;34.10;54.70
15274;DHT22;7738;49.532;11.156;2023-08-24T13:57:50;33.70;55.50
15274;DHT22;7738;49.532;11.156;2023-08-24T14:00:21;33.70;54.50
15274;DHT22;7738;49.532;11.156;2023-08-24T14:02:52;33.50;54.70
15274;DHT22;7738;49.532;11.156;2023-08-24T14:05:23;33.40;54.20
15274;DHT22;7738;49.532;11.156;2023-08-24T14:07:55;33.30;55.60
15274;DHT22;7738;49.532;11.156;2023-08-24T14:10:26;33.10;56.40
15274;DHT22;7738;49.532;11.156;2023-08-24T14:12:56;33.00;55.30
15274;DHT22;7738;49.532;11.156;2023-08-24T14:15:27;32.80;56.00
15274;DHT22;7738;49.532;11.156;2023-08-24T14:17:57;32.70;56.40
15274;DHT22;7738;49.532;11.156;2023-08-24T14:20:27;32.60;58.20
15274;DHT22;7738;49.532;11.156;2023-08-24T14:23:00;32.60;57.20
15274;DHT22;7738;49.532;11.156;2023-08-24T14:25:31;32.70;59.10
15274;DHT22;7738;49.532;11.156;2023-08-24T14:28:01;32.90;57.30
15274;DHT22;7738;49.532;11.156;2023-08-24T14:30:35;33.00;57.70
15274;DHT22;7738;49.532;11.156;2023-08-24T14:33:05;33.20;57.40
15274;DHT22;7738;49.532;11.156;2023-08-24T14:35:36;33.20;56.80
15274;DHT22;7738;49.532;11.156;2023-08-24T14:38:08;33.40;56.60
15274;DHT22;7738;49.532;11.156;2023-08-24T14:40:38;33.40;56.00
15274;DHT22;7738;49.532;11.156;2023-08-24T14:43:09;33.40;56.10
15274;DHT22;7738;49.532;11.156;2023-08-24T14:48:22;33.40;53.70
15274;DHT22;7738;49.532;11.156;2023-08-24T14:50:52;33.20;54.90
15274;DHT22;7738;49.532;11.156;2023-08-24T14:53:24;33.30;55.40
15274;DHT22;7738;49.532;11.156;2023-08-24T14:55:54;33.40;54.30
15274;DHT22;7738;49.532;11.156;2023-08-24T14:58:26;33.40;55.00
15274;DHT22;7738;49.532;11.156;2023-08-24T15:00:57;34.00;55.60
15274;DHT22;7738;49.532;11.156;2023-08-24T15:03:30;33.80;55.80
15274;DHT22;7738;49.532;11.156;2023-08-24T15:06:01;33.80;55.40
15274;DHT22;7738;49.532;11.156;2023-08-24T15:08:32;33.60;55.70
15274;DHT22;7738;49.532;11.156;2023-08-24T15:11:03;33.30;56.20
15274;DHT22;7738;49.532;11.156;2023-08-24T15:13:34;33.20;56.60
15274;DHT22;7738;49.532;11.156;2023-08-24T15:16:04;32.90;56.40
15274;DHT22;7738;49.532;11.156;2023-08-24T15:18:39;32.70;57.30
15274;DHT22;7738;49.532;11.156;2023-08-24T15:21:09;32.50;57.50
15274;DHT22;7738;49.532;11.156;2023-08-24T15:23:42;32.40;58.50
15274;DHT22;7738;49.532;11.156;2023-08-24T15:26:12;32.20;59.00
15274;DHT22;7738;49.532;11.156;2023-08-24T15:29:07;32.20;58.70
15274;DHT22;7738;49.532;11.156;2023-08-24T15:31:37;32.30;58.40
15274;DHT22;7738;49.532;11.156;2023-08-24T15:34:10;32.10;57.30
15274;DHT22;7738;49.532;11.156;2023-08-24T15:36:41;32.10;58.50
15274;DHT22;7738;49.532;11.156;2023-08-24T15:39:12;31.90;59.00
15274;DHT22;7738;49.532;11.156;2023-08-24T15:41:42;31.80;58.90
15274;DHT22;7738;49.532;11.156;2023-08-24T15:44:12;31.50;60.30
15274;DHT22;7738;49.532;11.156;2023-08-24T15:46:42;31.40;59.60
15274;DHT22;7738;49.532;11.156;2023-08-24T15:49:15;31.30;60.20
15274;DHT22;7738;49.532;11.156;2023-08-24T15:51:45;31.40;60.70
15274;DHT22;7738;49.532;11.156;2023-08-24T15:54:15;31.20;60.80
15274;DHT22;7738;49.532;11.156;2023-08-24T15:56:45;31.00;61.10
15274;DHT22;7738;49.532;11.156;2023-08-24T15:59:17;30.90;61.60
15274;DHT22;7738;49.532;11.156;2023-08-24T16:01:47;30.70;62.50